createdAt,value
2022-10-12T00:01:09.717Z,29.10
2022-10-12T00:03:38.162Z,29.60
2022-10-12T00:06:19.217Z,26.10
2022-10-12T00:08:50.907Z,30.50
2022-10-12T00:11:21.297Z,25.90
2022-10-12T00:13:49.840Z,28.00
2022-10-12T00:16:19.392Z,23.30
2022-10-12T00:18:54.514Z,26.00
2022-10-12T00:21:23.481Z,30.90
2022-10-12T00:23:51.274Z,26.00
2022-10-12T00:26:22.111Z,28.50
2022-10-12T00:28:57.236Z,24.50
2022-10-12T00:31:25.654Z,28.90
2022-10-12T00:33:53.500Z,26.60
2022-10-12T00:36:23.779Z,27.20
2022-10-12T00:38:54.785Z,36.40
2022-10-12T00:41:25.762Z,34.50
2022-10-12T00:43:58.325Z,29.40
2022-10-12T00:46:32.657Z,29.90
2022-10-12T00:49:12.607Z,32.30
2022-10-12T00:51:44.452Z,26.80
2022-10-12T00:54:17.325Z,27.40
2022-10-12T00:56:48.411Z,26.30
2022-10-12T00:59:22.442Z,29.20
2022-10-12T01:01:51.075Z,27.20
2022-10-12T01:04:19.325Z,29.00
2022-10-12T01:06:47.075Z,28.00
2022-10-12T01:09:15.261Z,26.60
2022-10-12T01:11:43.009Z,27.80
2022-10-12T01:14:11.696Z,25.10
2022-10-12T01:16:50.170Z,27.80
2022-10-12T01:19:39.468Z,27.90
2022-10-12T01:22:12.049Z,29.30
2022-10-12T01:25:00.278Z,29.00
2022-10-12T01:27:44.153Z,31.80
2022-10-12T01:30:25.346Z,28.00
2022-10-12T01:33:12.058Z,38.00
2022-10-12T01:36:23.914Z,46.30
2022-10-12T01:39:08.832Z,38.70
2022-10-12T01:41:42.295Z,40.20
2022-10-12T01:44:10.026Z,36.90
2022-10-12T01:46:42.748Z,46.40
2022-10-12T01:49:12.468Z,42.60
2022-10-12T01:52:25.603Z,47.50
2022-10-12T01:55:19.965Z,45.90
2022-10-12T01:57:59.712Z,45.80
2022-10-12T02:00:27.789Z,52.30
2022-10-12T02:03:10.722Z,46.80
2022-10-12T02:05:55.985Z,48.50
2022-10-12T02:08:34.581Z,46.30
2022-10-12T02:11:10.410Z,42.70
2022-10-12T02:13:48.815Z,57.50
2022-10-12T02:16:22.913Z,50.70
2022-10-12T02:18:55.977Z,47.60
2022-10-12T02:21:31.816Z,48.70
2022-10-12T02:24:03.375Z,48.30
2022-10-12T02:26:34.263Z,61.30
2022-10-12T02:29:06.823Z,50.40
2022-10-12T02:31:55.381Z,52.50
2022-10-12T02:34:42.920Z,44.60
2022-10-12T02:37:42.432Z,48.60
2022-10-12T02:40:16.796Z,53.40
2022-10-12T02:43:09.729Z,54.90
2022-10-12T02:45:42.404Z,58.20
2022-10-12T02:48:15.155Z,46.70
2022-10-12T02:50:44.671Z,47.90
2022-10-12T02:53:13.058Z,46.70
2022-10-12T02:55:52.867Z,45.80
2022-10-12T02:58:20.844Z,47.00
2022-10-12T03:00:49.433Z,42.80
2022-10-12T03:03:17.495Z,40.70
2022-10-12T03:05:46.042Z,44.80
2022-10-12T03:08:13.933Z,52.30
2022-10-12T03:10:41.897Z,46.80
2022-10-12T03:13:09.720Z,41.40
2022-10-12T03:15:37.496Z,38.20
2022-10-12T03:18:05.393Z,43.10
2022-10-12T03:20:33.295Z,44.00
2022-10-12T03:23:01.277Z,40.20
2022-10-12T03:25:29.513Z,45.50
2022-10-12T03:27:57.545Z,44.20
2022-10-12T03:30:25.461Z,45.40
2022-10-12T03:32:53.307Z,44.40
2022-10-12T03:35:21.237Z,50.70
2022-10-12T03:37:49.228Z,56.20
2022-10-12T03:40:17.120Z,43.60
2022-10-12T03:42:44.992Z,47.10
2022-10-12T03:45:12.848Z,43.20
2022-10-12T03:47:40.986Z,53.70
2022-10-12T03:50:10.418Z,48.90
2022-10-12T03:52:38.276Z,46.60
2022-10-12T03:55:06.976Z,49.30
2022-10-12T03:57:34.948Z,38.50
2022-10-12T04:00:03.831Z,42.40
2022-10-12T04:02:40.047Z,47.40
2022-10-12T04:05:08.217Z,41.40
2022-10-12T04:07:36.606Z,45.30
2022-10-12T04:10:05.687Z,44.60
2022-10-12T04:12:33.626Z,40.40
2022-10-12T04:15:01.377Z,50.80
2022-10-12T04:17:29.325Z,37.20
2022-10-12T04:19:57.271Z,43.50
2022-10-12T04:22:25.237Z,40.40
2022-10-12T04:24:53.156Z,44.80
2022-10-12T04:27:20.901Z,49.50
2022-10-12T04:29:48.730Z,40.60
2022-10-12T04:32:16.690Z,39.60
2022-10-12T04:34:44.570Z,36.60
2022-10-12T04:37:12.550Z,38.80
2022-10-12T04:39:40.368Z,35.00
2022-10-12T04:42:09.036Z,50.00
2022-10-12T04:44:36.828Z,39.10
2022-10-12T04:47:04.842Z,40.40
2022-10-12T04:49:32.768Z,45.90
2022-10-12T04:52:00.680Z,43.00
2022-10-12T04:54:28.465Z,38.00
2022-10-12T04:56:56.422Z,45.20
2022-10-12T04:59:25.075Z,39.50
2022-10-12T05:01:54.521Z,40.00
2022-10-12T05:04:22.654Z,44.20
2022-10-12T05:06:50.965Z,45.90
2022-10-12T05:09:18.910Z,47.70
2022-10-12T05:11:46.818Z,44.60
2022-10-12T05:14:14.572Z,43.20
2022-10-12T05:16:42.298Z,47.90
2022-10-12T05:19:10.397Z,44.30
2022-10-12T05:21:40.399Z,45.80
2022-10-12T05:24:08.636Z,49.40
2022-10-12T05:26:36.691Z,40.60
2022-10-12T05:29:04.894Z,60.90
2022-10-12T05:31:32.677Z,40.40
2022-10-12T05:34:00.685Z,44.30
2022-10-12T05:36:28.618Z,44.20
2022-10-12T05:38:56.739Z,38.50
2022-10-12T05:41:24.765Z,42.40
2022-10-12T05:43:53.691Z,44.60
2022-10-12T05:46:21.681Z,40.30
2022-10-12T05:48:49.880Z,38.90
2022-10-12T05:51:17.756Z,47.20
2022-10-12T05:53:45.701Z,45.20
2022-10-12T05:56:13.860Z,38.10
2022-10-12T05:58:42.426Z,52.80
2022-10-12T06:01:13.241Z,57.60
2022-10-12T06:03:41.155Z,47.50
2022-10-12T06:06:09.617Z,55.30
2022-10-12T06:08:37.652Z,45.70
2022-10-12T06:11:05.876Z,47.10
2022-10-12T06:13:34.186Z,52.10
2022-10-12T06:16:02.180Z,50.30
2022-10-12T06:18:30.537Z,55.10
2022-10-12T06:23:46.964Z,52.70
2022-10-12T06:26:17.250Z,60.10
2022-10-12T06:28:45.223Z,55.30
2022-10-12T06:31:14.445Z,53.00
2022-10-12T06:33:42.618Z,59.70
2022-10-12T06:36:10.639Z,60.70
2022-10-12T06:38:38.588Z,55.10
2022-10-12T06:41:06.729Z,59.60
2022-10-12T06:43:34.919Z,63.10
2022-10-12T06:46:11.291Z,52.30
2022-10-12T06:48:45.973Z,43.20
2022-10-12T06:51:14.118Z,55.60
2022-10-12T06:53:42.327Z,52.00
2022-10-12T06:56:11.031Z,60.40
2022-10-12T06:58:39.641Z,51.60
2022-10-12T07:01:10.960Z,59.70
2022-10-12T07:03:39.182Z,54.40
2022-10-12T07:06:12.754Z,57.60
2022-10-12T07:08:42.404Z,48.60
2022-10-12T07:11:12.768Z,53.60
2022-10-12T07:13:41.159Z,48.70
2022-10-12T07:16:09.386Z,56.40
2022-10-12T07:18:37.355Z,41.80
2022-10-12T07:21:05.463Z,55.90
2022-10-12T07:23:35.185Z,48.70
2022-10-12T07:26:03.429Z,45.40
2022-10-12T07:28:31.568Z,42.80
2022-10-12T07:31:08.069Z,44.60
2022-10-12T07:33:38.793Z,41.40
2022-10-12T07:36:20.891Z,40.00
2022-10-12T07:38:50.225Z,53.00
2022-10-12T07:41:18.931Z,51.50
2022-10-12T07:43:47.335Z,48.00
2022-10-12T07:46:15.621Z,49.10
2022-10-12T07:48:49.141Z,53.70
2022-10-12T07:51:18.869Z,58.80
2022-10-12T07:53:47.063Z,47.20
2022-10-12T07:56:15.595Z,53.20
2022-10-12T07:58:52.324Z,47.80
2022-10-12T08:01:22.668Z,45.90
2022-10-12T08:03:51.627Z,53.50
2022-10-12T08:06:23.493Z,54.20
2022-10-12T08:08:51.697Z,60.20
2022-10-12T08:11:20.872Z,61.20
2022-10-12T08:13:49.474Z,63.60
2022-10-12T08:16:20.167Z,50.70
2022-10-12T08:18:49.146Z,47.40
2022-10-12T08:21:18.237Z,39.80
2022-10-12T08:23:47.225Z,39.60
2022-10-12T08:26:16.227Z,44.20
2022-10-12T08:28:44.397Z,38.60
2022-10-12T08:31:17.756Z,44.50
2022-10-12T08:33:45.758Z,36.70
2022-10-12T08:36:14.388Z,38.60
2022-10-12T08:38:43.824Z,40.10
2022-10-12T08:41:24.102Z,33.90
2022-10-12T08:44:04.151Z,44.00
2022-10-12T08:46:33.127Z,41.00
2022-10-12T08:49:29.161Z,49.30
2022-10-12T08:52:00.937Z,52.40
2022-10-12T08:54:37.888Z,49.30
2022-10-12T08:57:15.986Z,45.80
2022-10-12T08:59:44.930Z,40.00
2022-10-12T09:02:56.121Z,42.30
2022-10-12T09:05:56.824Z,47.70
2022-10-12T09:08:36.642Z,45.80
2022-10-12T09:11:24.036Z,39.70
2022-10-12T09:14:06.884Z,40.80
2022-10-12T09:16:41.644Z,44.70
2022-10-12T09:19:22.125Z,44.60
2022-10-12T09:21:53.631Z,51.20
2022-10-12T09:24:29.218Z,40.20
2022-10-12T09:27:01.090Z,41.80
2022-10-12T09:29:32.061Z,39.50
2022-10-12T09:32:04.042Z,40.20
2022-10-12T09:34:32.232Z,40.00
2022-10-12T09:37:03.540Z,44.80
2022-10-12T09:39:36.791Z,52.20
2022-10-12T09:42:05.087Z,52.40
2022-10-12T09:44:40.866Z,43.10
2022-10-12T09:47:21.227Z,40.30
2022-10-12T09:49:54.539Z,37.10
2022-10-12T09:52:36.535Z,43.70
2022-10-12T09:55:16.949Z,44.20
2022-10-12T09:57:54.751Z,44.50
2022-10-12T10:00:29.537Z,44.30
2022-10-12T10:02:58.671Z,43.90
2022-10-12T10:05:35.991Z,43.50
2022-10-12T10:08:20.512Z,47.20
2022-10-12T10:10:56.517Z,36.30
2022-10-12T10:13:29.022Z,42.30
2022-10-12T10:16:09.700Z,50.00
2022-10-12T10:18:43.400Z,48.10
2022-10-12T10:21:14.667Z,43.50
2022-10-12T10:23:44.023Z,49.80
2022-10-12T10:26:16.024Z,43.80
2022-10-12T10:28:46.039Z,47.60
2022-10-12T10:31:13.962Z,48.30
2022-10-12T10:33:43.771Z,47.80
2022-10-12T10:36:22.375Z,43.10
2022-10-12T10:39:02.997Z,45.20
2022-10-12T10:41:38.726Z,50.00
2022-10-12T10:44:28.270Z,42.50
2022-10-12T10:47:01.515Z,45.20
2022-10-12T10:49:43.284Z,48.00
2022-10-12T10:52:37.632Z,41.30
2022-10-12T10:55:44.673Z,48.50
2022-10-12T10:58:25.211Z,43.80
2022-10-12T11:00:59.053Z,42.80
2022-10-12T11:03:52.294Z,36.60
2022-10-12T11:06:41.472Z,37.50
2022-10-12T11:09:12.641Z,50.70
2022-10-12T11:11:43.454Z,41.80
2022-10-12T11:14:25.797Z,43.40
2022-10-12T11:17:03.786Z,43.50
2022-10-12T11:19:48.164Z,34.10
2022-10-12T11:22:20.647Z,39.30
2022-10-12T11:25:02.377Z,38.30
2022-10-12T11:27:37.011Z,33.90
2022-10-12T11:30:14.407Z,41.20
2022-10-12T11:33:05.465Z,41.60
2022-10-12T11:35:40.619Z,38.40
2022-10-12T11:41:33.948Z,38.60
2022-10-12T11:44:20.645Z,40.60
2022-10-12T11:47:15.930Z,37.50
2022-10-12T11:49:50.296Z,36.10
2022-10-12T11:52:22.024Z,30.70
2022-10-12T11:54:58.144Z,37.20
2022-10-12T11:57:35.760Z,32.20
2022-10-12T12:00:11.876Z,27.00
2022-10-12T12:02:50.153Z,39.40
2022-10-12T12:05:18.799Z,38.30
2022-10-12T12:07:56.799Z,33.50
2022-10-12T12:10:28.143Z,36.10
2022-10-12T12:13:11.304Z,32.60
2022-10-12T12:15:44.259Z,31.40
2022-10-12T12:18:21.947Z,29.90
2022-10-12T12:20:50.206Z,34.70
2022-10-12T12:23:35.395Z,33.50
2022-10-12T12:26:15.738Z,35.90
2022-10-12T12:28:49.600Z,32.90
2022-10-12T12:31:28.900Z,30.90
2022-10-12T12:34:17.014Z,35.90
2022-10-12T12:36:47.800Z,32.20
2022-10-12T12:39:32.268Z,31.50
2022-10-12T12:42:03.569Z,36.90
2022-10-12T12:44:38.713Z,36.50
2022-10-12T12:47:32.507Z,49.20
2022-10-12T12:50:00.712Z,38.70
2022-10-12T12:52:34.562Z,35.90
2022-10-12T12:55:18.210Z,30.70
2022-10-12T12:58:13.295Z,36.10
2022-10-12T13:01:33.814Z,29.40
2022-10-12T13:04:17.655Z,32.60
2022-10-12T13:07:01.754Z,34.20
2022-10-12T13:09:51.641Z,39.30
2022-10-12T13:12:22.600Z,34.60
2022-10-12T13:15:37.959Z,30.90
2022-10-12T13:18:45.993Z,31.60
2022-10-12T13:21:17.331Z,37.30
2022-10-12T13:23:51.405Z,32.30
2022-10-12T13:26:27.909Z,36.90
2022-10-12T13:28:57.835Z,35.80
2022-10-12T13:31:43.158Z,40.50
2022-10-12T13:36:51.559Z,48.40
2022-10-12T13:39:21.856Z,38.60
2022-10-12T13:41:53.745Z,30.90
2022-10-12T13:44:36.801Z,38.50
2022-10-12T13:47:21.140Z,34.80
2022-10-12T13:49:49.543Z,48.60
2022-10-12T13:52:20.277Z,35.20
2022-10-12T13:54:50.227Z,33.30
2022-10-12T13:57:35.576Z,36.40
2022-10-12T14:03:00.627Z,34.80
2022-10-12T14:05:31.170Z,33.20
2022-10-12T14:08:07.151Z,36.80
2022-10-12T14:10:38.348Z,35.50
2022-10-12T14:13:09.606Z,33.50
2022-10-12T14:15:39.964Z,37.80
2022-10-12T14:18:56.478Z,38.80
2022-10-12T14:21:28.976Z,63.50
2022-10-12T14:24:01.269Z,46.50
2022-10-12T14:26:40.368Z,36.60
2022-10-12T14:29:30.633Z,41.80
2022-10-12T14:32:26.003Z,45.20
2022-10-12T14:35:19.137Z,42.00
2022-10-12T14:37:48.461Z,38.20
2022-10-12T14:40:33.972Z,49.20
2022-10-12T14:43:04.386Z,47.70
2022-10-12T14:45:33.658Z,35.40
2022-10-12T14:48:02.843Z,39.20
2022-10-12T14:50:31.943Z,42.50
2022-10-12T14:53:07.799Z,42.10
2022-10-12T14:55:35.999Z,46.00
2022-10-12T14:58:08.258Z,38.50
2022-10-12T15:00:37.770Z,43.00
2022-10-12T15:03:06.148Z,41.30
2022-10-12T15:05:34.694Z,46.80
2022-10-12T15:08:09.069Z,47.40
2022-10-12T15:10:37.910Z,44.50
2022-10-12T15:13:06.169Z,45.20
2022-10-12T15:15:36.713Z,38.90
2022-10-12T15:18:05.101Z,39.70
2022-10-12T15:20:34.465Z,36.50
2022-10-12T15:23:03.426Z,35.20
2022-10-12T15:25:49.696Z,33.70
2022-10-12T15:28:19.180Z,35.00
2022-10-12T15:31:12.200Z,33.50
2022-10-12T15:33:35.818Z,37.90
2022-10-12T15:36:04.405Z,44.50
2022-10-12T15:38:32.891Z,38.30
2022-10-12T15:41:02.301Z,38.90
2022-10-12T15:43:31.616Z,38.40
2022-10-12T15:46:00.192Z,39.70
2022-10-12T15:48:29.271Z,43.00
2022-10-12T15:50:57.859Z,43.60
2022-10-12T15:53:26.442Z,33.30
2022-10-12T15:55:55.536Z,24.30
2022-10-12T15:58:24.030Z,26.40
2022-10-12T16:00:51.908Z,26.50
2022-10-12T16:03:26.047Z,25.50
2022-10-12T16:05:54.912Z,27.80
2022-10-12T16:08:24.399Z,29.80
2022-10-12T16:10:52.643Z,29.20
2022-10-12T16:13:20.818Z,30.20
2022-10-12T16:15:49.092Z,30.10
2022-10-12T16:18:18.072Z,29.80
2022-10-12T16:20:52.479Z,39.60
2022-10-12T16:23:26.762Z,31.70
2022-10-12T16:25:55.253Z,31.30
2022-10-12T16:28:24.394Z,31.10
2022-10-12T16:30:53.838Z,32.90
2022-10-12T16:33:21.838Z,34.00
2022-10-12T16:35:49.882Z,34.90
2022-10-12T16:38:20.202Z,35.50
2022-10-12T16:40:51.446Z,34.20
2022-10-12T16:43:19.762Z,32.40
2022-10-12T16:45:55.334Z,32.10
2022-10-12T16:50:50.937Z,36.50
2022-10-12T16:53:18.980Z,35.10
2022-10-12T16:55:46.880Z,35.30
2022-10-12T16:58:15.028Z,37.90
2022-10-12T17:00:43.602Z,34.70
2022-10-12T17:03:14.231Z,34.10
2022-10-12T17:05:43.241Z,41.40
2022-10-12T17:08:15.034Z,31.70
2022-10-12T17:10:44.408Z,36.80
2022-10-12T17:13:13.668Z,37.40
2022-10-12T17:15:42.285Z,36.90
2022-10-12T17:18:10.190Z,43.00
2022-10-12T17:20:38.214Z,37.10
2022-10-12T17:23:06.554Z,34.30
2022-10-12T17:25:35.776Z,28.50
2022-10-12T17:28:03.737Z,35.30
2022-10-12T17:30:31.658Z,26.40
2022-10-12T17:33:00.038Z,30.30
2022-10-12T17:35:27.924Z,31.00
2022-10-12T17:37:55.768Z,32.70
2022-10-12T17:40:23.619Z,32.40
2022-10-12T17:42:51.452Z,27.70
2022-10-12T17:45:19.320Z,31.00
2022-10-12T17:47:49.140Z,30.00
2022-10-12T17:50:16.973Z,26.50
2022-10-12T17:52:44.861Z,22.90
2022-10-12T17:55:24.331Z,27.60
2022-10-12T17:58:00.717Z,26.70
2022-10-12T18:00:28.893Z,34.70
2022-10-12T18:02:57.728Z,30.40
2022-10-12T18:05:25.739Z,26.40
2022-10-12T18:07:53.566Z,23.80
2022-10-12T18:10:23.570Z,24.20
2022-10-12T18:12:54.297Z,26.40
2022-10-12T18:15:23.288Z,23.10
2022-10-12T18:17:51.193Z,22.00
2022-10-12T18:20:19.870Z,24.10
2022-10-12T18:22:48.371Z,20.60
2022-10-12T18:25:17.098Z,22.20
2022-10-12T18:27:46.951Z,21.00
2022-10-12T18:30:14.883Z,21.50
2022-10-12T18:32:42.801Z,21.50
2022-10-12T18:35:11.052Z,24.40
2022-10-12T18:37:39.071Z,25.50
2022-10-12T18:40:07.726Z,28.20
2022-10-12T18:42:35.665Z,30.30
2022-10-12T18:45:03.995Z,22.90
2022-10-12T18:47:32.044Z,27.20
2022-10-12T18:50:00.663Z,22.60
2022-10-12T18:52:28.492Z,27.00
2022-10-12T18:54:56.278Z,23.90
2022-10-12T18:57:28.827Z,26.00
2022-10-12T18:59:58.849Z,24.70
2022-10-12T19:02:26.741Z,21.60
2022-10-12T19:04:55.774Z,22.40
2022-10-12T19:07:23.638Z,23.00
2022-10-12T19:09:51.675Z,24.00
2022-10-12T19:12:20.196Z,27.60
2022-10-12T19:14:49.041Z,27.30
2022-10-12T19:17:16.978Z,26.10
2022-10-12T19:19:44.929Z,24.00
2022-10-12T19:22:12.718Z,25.30
2022-10-12T19:24:40.492Z,26.80
2022-10-12T19:27:08.306Z,26.10
2022-10-12T19:29:36.866Z,29.40
2022-10-12T19:32:04.693Z,38.20
2022-10-12T19:34:32.478Z,32.40
2022-10-12T19:37:00.780Z,34.00
2022-10-12T19:39:28.626Z,33.80
2022-10-12T19:41:56.360Z,33.40
2022-10-12T19:44:24.381Z,31.00
2022-10-12T19:46:53.716Z,32.40
2022-10-12T19:49:22.159Z,28.10
2022-10-12T19:51:49.984Z,30.70
2022-10-12T19:54:18.079Z,26.50
2022-10-12T19:56:46.504Z,27.50
2022-10-12T19:59:14.306Z,28.00
2022-10-12T20:01:47.803Z,26.90
2022-10-12T20:04:16.252Z,24.90
2022-10-12T20:06:44.126Z,30.40
2022-10-12T20:09:12.480Z,25.90
2022-10-12T20:11:40.704Z,28.30
2022-10-12T20:14:08.489Z,29.50
2022-10-12T20:16:37.508Z,23.80
2022-10-12T20:19:07.363Z,25.80
2022-10-12T20:21:36.795Z,27.00
2022-10-12T20:24:05.071Z,23.70
2022-10-12T20:26:32.944Z,28.40
2022-10-12T20:29:01.435Z,24.80
2022-10-12T20:31:29.654Z,24.60
2022-10-12T20:33:58.375Z,28.20
2022-10-12T20:36:29.156Z,28.60
2022-10-12T20:38:58.426Z,36.40
2022-10-12T20:41:27.793Z,32.00
2022-10-12T20:44:00.778Z,33.30
2022-10-12T20:46:29.955Z,26.10
2022-10-12T20:49:00.558Z,27.50
2022-10-12T20:51:31.333Z,24.70
2022-10-12T20:54:01.069Z,27.10
2022-10-12T20:56:31.926Z,24.10
2022-10-12T20:59:00.771Z,28.20
2022-10-12T21:01:28.820Z,24.10
2022-10-12T21:03:57.246Z,21.00
2022-10-12T21:06:25.121Z,25.70
2022-10-12T21:08:54.841Z,25.10
2022-10-12T21:11:23.592Z,23.30
2022-10-12T21:13:51.789Z,23.00
2022-10-12T21:16:19.581Z,18.90
2022-10-12T21:18:47.579Z,22.00
2022-10-12T21:21:17.734Z,24.50
2022-10-12T21:23:55.321Z,25.10
2022-10-12T21:26:25.669Z,28.00
2022-10-12T21:28:54.146Z,22.80
2022-10-12T21:31:22.570Z,26.20
2022-10-12T21:33:50.505Z,22.30
2022-10-12T21:36:24.100Z,22.50
2022-10-12T21:38:52.235Z,33.10
2022-10-12T21:41:22.287Z,25.00
2022-10-12T21:43:51.300Z,22.00
2022-10-12T21:46:28.527Z,23.90
2022-10-12T21:48:57.547Z,23.20
2022-10-12T21:51:26.876Z,21.20
2022-10-12T21:53:55.123Z,28.50
2022-10-12T21:56:28.596Z,22.50
2022-10-12T21:58:59.275Z,25.60
2022-10-12T22:01:39.313Z,25.60
2022-10-12T22:04:12.234Z,25.40
2022-10-12T22:06:41.406Z,22.30
2022-10-12T22:09:16.544Z,24.20
2022-10-12T22:11:44.282Z,26.30
2022-10-12T22:14:16.123Z,32.10
2022-10-12T22:16:44.461Z,29.30
2022-10-12T22:19:20.260Z,29.20
2022-10-12T22:21:51.304Z,30.90
2022-10-12T22:24:21.014Z,30.60
2022-10-12T22:26:49.387Z,33.60
2022-10-12T22:29:17.153Z,27.80
2022-10-12T22:31:46.396Z,22.50
2022-10-12T22:34:16.270Z,26.30
2022-10-12T22:36:44.301Z,28.90
2022-10-12T22:39:12.072Z,23.90
2022-10-12T22:41:41.805Z,29.50
2022-10-12T22:44:09.816Z,24.80
2022-10-12T22:46:37.531Z,25.80
2022-10-12T22:49:05.415Z,21.20
2022-10-12T22:51:35.303Z,25.80
2022-10-12T22:54:03.765Z,26.10
2022-10-12T22:56:31.914Z,24.90
2022-10-12T22:59:01.953Z,25.70
2022-10-12T23:01:29.967Z,21.10
2022-10-12T23:03:57.835Z,21.00
2022-10-12T23:06:26.056Z,28.10
2022-10-12T23:08:53.803Z,23.90
2022-10-12T23:11:24.546Z,19.30
2022-10-12T23:13:53.232Z,23.60
2022-10-12T23:16:23.866Z,24.70
2022-10-12T23:18:59.459Z,22.10
2022-10-12T23:21:29.454Z,26.10
2022-10-12T23:23:58.881Z,26.00
2022-10-12T23:26:28.053Z,22.80
2022-10-12T23:28:56.148Z,26.30
2022-10-12T23:31:27.105Z,25.10
2022-10-12T23:34:05.189Z,26.20
2022-10-12T23:36:35.042Z,21.00
2022-10-12T23:39:04.890Z,26.70
2022-10-12T23:41:32.993Z,23.90
2022-10-12T23:44:00.962Z,26.40
2022-10-12T23:46:29.232Z,24.50
2022-10-12T23:48:58.640Z,18.70
2022-10-12T23:51:26.424Z,23.10
2022-10-12T23:53:54.272Z,18.10
2022-10-12T23:56:22.491Z,23.80
2022-10-12T23:58:50.229Z,20.00
